Time;durP1;ratioP1;P1;durP2;ratioP2;P2;SDS_P1;SDS_P2;PMS_P1;PMS_P2;Temp;Humidity;BMP_temperature;BMP_pressure;BME280_temperature;BME280_humidity;BME280_pressure;Samples;Min_cycle;Max_cycle;Signal;HPM_P1;HPM_P2
2023/12/26 09:34:09;;;;;;;11.70;3.77;;;;;;;8.03;100.00;101269.81;5295128;28;20375;-71
2023/12/26 09:36:41;;;;;;;14.10;3.00;;;;;;;7.96;100.00;101271.84;5284372;28;20067;-74
2023/12/26 09:39:12;;;;;;;13.17;3.67;;;;;;;8.13;100.00;101285.94;5298886;28;20047;-70
2023/12/26 09:41:44;;;;;;;11.43;2.40;;;;;;;8.10;100.00;101273.00;5294102;28;20024;-71
2023/12/26 09:44:16;;;;;;;16.13;4.00;;;;;;;8.41;100.00;101304.78;5288703;28;20024;-69
2023/12/26 09:46:48;;;;;;;12.97;3.57;;;;;;;8.34;100.00;101310.25;5292645;28;20024;-70
2023/12/26 09:49:20;;;;;;;16.53;3.03;;;;;;;8.27;100.00;101305.38;5283315;28;20032;-70
2023/12/26 09:51:52;;;;;;;16.93;3.37;;;;;;;8.21;100.00;101317.78;5255204;28;20033;-70
2023/12/26 09:54:26;;;;;;;10.27;2.47;;;;;;;8.14;100.00;101305.03;5254912;28;20059;-69
2023/12/26 09:56:57;;;;;;;13.32;3.92;;;;;;;7.99;100.00;101310.84;5296532;28;20027;-70
2023/12/26 09:59:29;;;;;;;10.93;2.90;;;;;;;7.95;100.00;101319.72;5278771;28;20478;-70
2023/12/26 10:02:00;;;;;;;18.33;3.37;;;;;;;7.87;100.00;101333.06;5297843;28;20344;-70
2023/12/26 10:04:32;;;;;;;14.43;3.60;;;;;;;8.11;100.00;101334.72;5295663;28;20036;-70
2023/12/26 10:07:03;;;;;;;18.27;3.90;;;;;;;8.22;100.00;101342.94;5297282;28;20440;-69
2023/12/26 10:09:35;;;;;;;16.33;3.47;;;;;;;7.96;100.00;101341.41;5308277;28;20081;-69
2023/12/26 10:12:07;;;;;;;11.63;3.03;;;;;;;8.06;100.00;101344.50;5289945;28;20025;-69
2023/12/26 10:14:38;;;;;;;17.97;3.93;;;;;;;8.16;100.00;101347.56;5293608;28;20020;-70
2023/12/26 10:17:12;;;;;;;16.20;3.97;;;;;;;8.23;100.00;101344.66;5284932;28;20017;-70
2023/12/26 10:19:45;;;;;;;17.98;3.08;;;;;;;8.21;100.00;101348.25;5290063;28;20674;-69
2023/12/26 10:22:17;;;;;;;14.00;3.57;;;;;;;8.30;100.00;101365.28;5289060;28;20032;-70
2023/12/26 10:24:48;;;;;;;14.07;2.73;;;;;;;8.38;100.00;101357.97;5291652;28;20040;-71
2023/12/26 10:27:19;;;;;;;15.23;3.53;;;;;;;8.73;100.00;101370.44;5292205;28;20028;-71
2023/12/26 10:29:53;;;;;;;9.17;2.97;;;;;;;8.59;100.00;101381.47;5298876;28;20044;-69
2023/12/26 10:32:25;;;;;;;17.33;4.57;;;;;;;8.66;100.00;101382.91;5287868;28;20048;-73
2023/12/26 10:35:13;;;;;;;15.30;3.03;;;;;;;8.81;100.00;101376.19;5296279;28;20114;-75
2023/12/26 10:37:44;;;;;;;19.70;3.60;;;;;;;8.83;100.00;101382.19;5266539;28;20056;-76
2023/12/26 10:40:17;;;;;;;14.47;4.20;;;;;;;8.79;100.00;101370.19;5290834;28;20052;-80
2023/12/26 10:42:50;;;;;;;14.33;3.67;;;;;;;8.91;100.00;101354.88;5291399;28;20657;-76
2023/12/26 10:45:21;;;;;;;14.77;3.13;;;;;;;8.89;100.00;101352.34;5253005;28;20097;-88
2023/12/26 10:47:55;;;;;;;12.93;3.63;;;;;;;8.95;100.00;101351.22;5268262;28;20024;-78
2023/12/26 10:50:31;;;;;;;9.45;2.45;;;;;;;9.03;100.00;101353.47;5275715;28;20025;-79
2023/12/26 10:53:15;;;;;;;12.27;4.03;;;;;;;9.19;100.00;101346.66;5286403;28;20051;-75
2023/12/26 10:55:49;;;;;;;12.73;2.85;;;;;;;9.17;100.00;101353.72;5271826;28;20040;-81
2023/12/26 10:58:29;;;;;;;15.40;3.53;;;;;;;9.17;100.00;101361.56;5276362;28;20035;-76
2023/12/26 13:54:49;;;;;;;12.63;3.60;;;;;;;9.23;100.00;101553.00;5268020;28;20032;-69
2023/12/26 13:57:58;;;;;;;13.47;3.13;;;;;;;9.24;100.00;101557.28;5251590;28;20423;-69
2023/12/26 14:01:07;;;;;;;13.73;3.07;;;;;;;9.17;100.00;101564.53;5272437;28;20074;-69
2023/12/26 14:04:16;;;;;;;11.77;3.47;;;;;;;9.23;100.00;101568.66;5263537;28;20472;-69
2023/12/26 14:07:25;;;;;;;14.97;3.13;;;;;;;9.24;100.00;101565.13;5271021;28;20709;-70
2023/12/26 14:10:33;;;;;;;14.10;3.07;;;;;;;9.24;100.00;101570.34;5270953;28;20075;-70
2023/12/26 14:13:42;;;;;;;15.10;2.87;;;;;;;9.25;100.00;101574.69;5267381;28;20035;-69
2023/12/26 14:16:51;;;;;;;11.73;2.77;;;;;;;9.17;100.00;101581.09;5270271;28;20098;-70
2023/12/26 14:20:00;;;;;;;16.37;2.80;;;;;;;9.23;100.00;101589.56;5261581;28;20528;-71
2023/12/26 14:22:31;;;;;;;14.10;4.10;;;;;;;9.00;100.00;101575.72;5275422;28;20079;-68
2023/12/26 14:25:03;;;;;;;10.90;2.73;;;;;;;9.11;100.00;101591.78;5264955;28;20032;-69
2023/12/26 14:27:34;;;;;;;15.63;2.93;;;;;;;9.14;100.00;101586.44;5275759;28;20021;-70
2023/12/26 14:30:05;;;;;;;13.00;3.33;;;;;;;9.08;100.00;101603.22;5276216;28;20106;-72
2023/12/26 14:32:37;;;;;;;15.83;4.00;;;;;;;9.03;100.00;101604.31;5280052;28;20040;-71
2023/12/26 14:35:08;;;;;;;16.00;2.67;;;;;;;9.04;100.00;101627.75;5278080;28;20106;-69
2023/12/26 14:37:39;;;;;;;11.47;2.63;;;;;;;9.01;100.00;101622.66;5279732;28;20036;-70
2023/12/26 14:40:11;;;;;;;14.27;3.47;;;;;;;8.97;100.00;101617.63;5271636;28;20029;-71
2023/12/26 14:42:42;;;;;;;17.93;2.90;;;;;;;9.02;100.00;101633.97;5282356;28;20078;-70
2023/12/26 14:45:13;;;;;;;10.50;2.77;;;;;;;9.04;100.00;101640.00;5259951;28;20040;-69
2023/12/26 14:47:45;;;;;;;17.07;3.60;;;;;;;9.03;100.00;101639.13;5283590;28;20483;-68
2023/12/26 14:50:16;;;;;;;19.03;4.03;;;;;;;8.97;100.00;101633.31;5288616;28;20032;-69
2023/12/26 14:52:48;;;;;;;12.17;3.67;;;;;;;8.80;100.00;101640.91;5287940;28;20020;-69
2023/12/26 14:55:19;;;;;;;10.33;3.10;;;;;;;9.00;100.00;101656.69;5255954;28;20024;-68
2023/12/26 14:57:50;;;;;;;17.13;4.53;;;;;;;8.98;100.00;101655.91;5276354;28;20667;-69
2023/12/26 15:00:22;;;;;;;13.60;3.87;;;;;;;9.08;100.00;101662.47;5289717;28;20025;-67
2023/12/26 15:02:53;;;;;;;15.17;4.27;;;;;;;9.01;100.00;101658.38;5260925;28;20028;-69
2023/12/26 15:05:25;;;;;;;18.57;4.40;;;;;;;8.97;100.00;101662.91;5255283;28;20491;-69
2023/12/26 15:07:56;;;;;;;12.30;3.47;;;;;;;8.87;100.00;101657.19;5276053;28;20588;-69
2023/12/26 15:10:28;;;;;;;14.50;3.20;;;;;;;8.90;100.00;101661.47;5262002;28;20025;-68
2023/12/26 15:13:01;;;;;;;19.20;3.73;;;;;;;9.04;100.00;101666.13;5276213;28;20029;-67
2023/12/26 15:15:32;;;;;;;17.07;3.60;;;;;;;8.98;100.00;101663.75;5275162;28;20051;-69
2023/12/26 15:18:03;;;;;;;13.57;4.50;;;;;;;8.97;100.00;101652.47;5254996;28;20020;-69
2023/12/26 15:20:35;;;;;;;9.47;3.03;;;;;;;8.98;100.00;101664.59;5267156;28;20020;-70
2023/12/26 15:23:06;;;;;;;13.70;3.13;;;;;;;8.94;100.00;101668.25;5265018;28;20501;-70
2023/12/26 15:25:37;;;;;;;11.37;3.00;;;;;;;8.85;100.00;101660.78;5276772;28;20032;-70
2023/12/26 15:28:09;;;;;;;12.93;2.93;;;;;;;8.86;100.00;101673.78;5252541;28;20021;-68
2023/12/26 15:30:40;;;;;;;16.43;4.03;;;;;;;8.88;100.00;101668.50;5277300;28;20059;-69
2023/12/26 15:33:11;;;;;;;16.40;3.90;;;;;;;8.85;100.00;101673.84;5273253;28;20076;-71
2023/12/26 15:35:43;;;;;;;12.47;3.50;;;;;;;8.81;100.00;101679.16;5282250;28;20074;-70
2023/12/26 15:38:14;;;;;;;14.80;3.53;;;;;;;8.75;100.00;101689.00;5257168;28;20386;-70
2023/12/26 15:40:45;;;;;;;10.60;2.50;;;;;;;8.77;100.00;101692.41;5275002;28;20083;-70
2023/12/26 15:43:17;;;;;;;15.37;3.43;;;;;;;8.83;100.00;101707.88;5255931;28;20035;-71
2023/12/26 15:45:48;;;;;;;13.40;3.03;;;;;;;8.72;100.00;101716.09;5259723;28;20565;-70
2023/12/26 15:48:19;;;;;;;12.30;2.93;;;;;;;8.75;100.00;101702.06;5282840;28;20032;-69
2023/12/26 15:50:51;;;;;;;13.70;4.00;;;;;;;8.80;100.00;101718.41;5262705;28;20026;-69
2023/12/26 15:53:22;;;;;;;10.27;2.60;;;;;;;8.78;100.00;101722.88;5274758;28;20120;-69
2023/12/26 15:55:53;;;;;;;9.53;3.13;;;;;;;8.66;100.00;101734.59;5279405;28;20032;-69
2023/12/26 15:58:26;;;;;;;10.83;2.37;;;;;;;8.69;100.00;101737.94;5269524;28;20021;-69
2023/12/26 16:00:59;;;;;;;12.30;2.87;;;;;;;8.69;100.00;101744.97;5266066;28;20025;-68
2023/12/26 16:03:30;;;;;;;9.33;2.50;;;;;;;8.67;100.00;101737.19;5268272;28;20478;-70
2023/12/26 16:06:02;;;;;;;11.63;3.00;;;;;;;8.65;100.00;101745.97;5274039;28;20105;-71
2023/12/26 16:08:34;;;;;;;8.40;2.80;;;;;;;8.67;100.00;101749.38;5267077;28;20062;-70
2023/12/26 16:11:07;;;;;;;8.13;2.47;;;;;;;8.55;100.00;101745.44;5274649;28;20497;-73
2023/12/26 16:13:39;;;;;;;10.93;3.08;;;;;;;8.45;100.00;101750.97;5274836;28;20032;-72
2023/12/26 16:16:10;;;;;;;12.50;3.60;;;;;;;8.43;100.00;101747.56;5252007;28;20040;-71
2023/12/26 16:18:42;;;;;;;11.23;2.67;;;;;;;8.48;100.00;101760.47;5255643;28;20037;-70
2023/12/26 16:21:13;;;;;;;13.27;3.13;;;;;;;8.45;100.00;101760.56;5274682;28;20166;-71
2023/12/26 16:23:44;;;;;;;12.90;3.20;;;;;;;8.52;100.00;101748.16;5273145;28;20028;-73
2023/12/26 16:26:16;;;;;;;13.87;3.43;;;;;;;8.62;100.00;101764.38;5276252;28;20040;-70
2023/12/26 16:28:47;;;;;;;11.50;3.10;;;;;;;8.59;100.00;101773.16;5274396;28;20033;-71
2023/12/26 16:31:18;;;;;;;9.87;3.23;;;;;;;8.60;100.00;101764.44;5274799;28;20039;-70
2023/12/26 16:33:50;;;;;;;13.50;3.20;;;;;;;8.55;100.00;101771.53;5274179;28;20086;-72
2023/12/26 16:36:22;;;;;;;11.67;2.90;;;;;;;8.63;100.00;101779.97;5274233;28;20236;-72
2023/12/26 16:38:53;;;;;;;14.47;3.00;;;;;;;8.58;100.00;101797.56;5273780;28;20032;-71
2023/12/26 16:41:24;;;;;;;16.27;3.23;;;;;;;8.48;100.00;101797.84;5273580;28;20649;-71
2023/12/26 16:43:56;;;;;;;10.37;3.07;;;;;;;8.40;100.00;101794.66;5273239;28;20039;-71
2023/12/26 16:46:27;;;;;;;16.37;3.33;;;;;;;8.40;100.00;101807.72;5272442;28;20453;-70
2023/12/26 16:48:59;;;;;;;11.00;3.47;;;;;;;8.42;100.00;101807.66;5273743;28;20608;-71
2023/12/26 16:51:30;;;;;;;12.17;4.07;;;;;;;8.42;100.00;101810.28;5253135;28;20025;-74
2023/12/26 16:54:02;;;;;;;9.73;2.40;;;;;;;8.41;100.00;101817.25;5252114;28;20063;-71
2023/12/26 16:56:33;;;;;;;8.23;2.50;;;;;;;8.43;100.00;101819.84;5264697;28;20521;-71
2023/12/26 16:59:05;;;;;;;11.83;3.00;;;;;;;8.38;100.00;101821.75;5267900;28;20625;-71
2023/12/26 17:01:41;;;;;;;7.77;2.83;;;;;;;8.42;100.00;101818.97;5255459;28;20035;-72
2023/12/26 17:04:14;;;;;;;10.17;3.17;;;;;;;8.37;100.00;101825.25;5276284;28;20098;-72
2023/12/26 17:06:45;;;;;;;19.17;4.20;;;;;;;8.39;100.00;101828.66;5273445;28;20029;-71
2023/12/26 17:09:17;;;;;;;12.73;3.70;;;;;;;8.31;100.00;101832.38;5247497;28;20029;-73
2023/12/26 17:11:49;;;;;;;11.03;3.30;;;;;;;8.31;100.00;101818.47;5270485;28;20494;-73
2023/12/26 17:14:23;;;;;;;13.80;4.37;;;;;;;8.33;100.00;101820.16;5252977;28;20032;-72
2023/12/26 17:16:54;;;;;;;14.35;3.35;;;;;;;8.30;100.00;101817.66;5247577;28;20055;-73
2023/12/26 17:19:25;;;;;;;13.23;4.10;;;;;;;8.36;100.00;101827.00;5264683;28;20032;-72
2023/12/26 17:21:57;;;;;;;14.83;5.00;;;;;;;8.39;100.00;101824.31;5263831;28;20029;-72
2023/12/26 17:24:28;;;;;;;12.47;5.23;;;;;;;8.34;100.00;101832.28;5264629;28;20174;-73
2023/12/26 17:27:00;;;;;;;14.80;4.90;;;;;;;8.34;100.00;101831.44;5267106;28;20067;-73
2023/12/26 17:29:31;;;;;;;11.43;4.00;;;;;;;8.20;100.00;101829.31;5263883;28;20067;-72
2023/12/26 17:32:03;;;;;;;14.77;4.40;;;;;;;8.25;100.00;101839.56;5270739;28;20152;-72
2023/12/26 17:34:34;;;;;;;19.90;12.23;;;;;;;8.21;100.00;101831.84;5267421;28;20123;-70
2023/12/26 17:37:05;;;;;;;12.73;5.80;;;;;;;8.18;100.00;101842.41;5265621;28;20031;-71
2023/12/26 17:39:37;;;;;;;13.20;5.07;;;;;;;8.23;100.00;101844.84;5263539;28;20029;-69
2023/12/26 17:42:08;;;;;;;13.70;4.73;;;;;;;8.11;100.00;101830.47;5265140;28;20160;-70
2023/12/26 17:44:39;;;;;;;13.17;4.47;;;;;;;8.10;100.00;101834.81;5266051;28;20592;-70
2023/12/26 17:47:11;;;;;;;11.20;3.37;;;;;;;8.11;100.00;101839.16;5267127;28;20055;-71
2023/12/26 17:49:42;;;;;;;14.30;5.03;;;;;;;8.13;100.00;101820.84;5263404;28;20240;-71
2023/12/26 17:52:13;;;;;;;10.87;4.10;;;;;;;8.20;100.00;101824.91;5264751;28;20060;-72
2023/12/26 17:54:45;;;;;;;10.77;5.10;;;;;;;8.14;100.00;101825.13;5266289;28;20029;-71
2023/12/26 17:57:17;;;;;;;14.50;5.23;;;;;;;8.07;100.00;101821.88;5269065;28;20035;-72
2023/12/26 17:59:48;;;;;;;13.63;4.03;;;;;;;7.91;100.00;101834.56;5269138;28;20427;-74
2023/12/26 18:02:19;;;;;;;15.57;7.00;;;;;;;7.95;100.00;101827.50;5273700;28;20020;-73
2023/12/26 18:04:51;;;;;;;14.23;5.40;;;;;;;7.93;100.00;101811.03;5270387;28;20025;-70
2023/12/26 18:07:22;;;;;;;12.37;5.50;;;;;;;7.93;100.00;101827.56;5241199;28;20028;-70
2023/12/26 18:09:54;;;;;;;16.07;5.67;;;;;;;7.94;100.00;101831.84;5267200;28;20715;-73
2023/12/26 18:12:25;;;;;;;11.93;4.33;;;;;;;8.05;100.00;101841.09;5280673;28;20032;-72
2023/12/26 18:14:57;;;;;;;13.13;3.90;;;;;;;7.90;100.00;101826.81;5277613;28;20677;-74
2023/12/26 18:17:28;;;;;;;11.20;4.17;;;;;;;7.82;100.00;101845.31;5273325;28;20035;-70
2023/12/26 18:19:59;;;;;;;10.03;3.90;;;;;;;7.86;100.00;101854.75;5260283;28;20415;-69
2023/12/26 18:22:31;;;;;;;14.87;5.83;;;;;;;7.75;100.00;101860.28;5278286;28;20020;-70
2023/12/26 18:25:02;;;;;;;12.70;5.03;;;;;;;7.77;100.00;101862.88;5275947;28;20027;-71
2023/12/26 18:27:33;;;;;;;18.93;5.27;;;;;;;7.73;100.00;101873.38;5277736;28;20028;-68
2023/12/26 18:30:06;;;;;;;11.73;4.87;;;;;;;7.79;100.00;101866.25;5277773;28;20124;-70
2023/12/26 18:32:37;;;;;;;13.53;6.00;;;;;;;7.75;100.00;101858.53;5278262;28;20053;-69
2023/12/26 18:35:10;;;;;;;13.40;4.67;;;;;;;8.02;100.00;101869.91;5277788;28;20027;-69
2023/12/26 18:37:41;;;;;;;14.73;4.67;;;;;;;7.80;100.00;101874.03;5275570;28;20100;-68
2023/12/26 18:40:13;;;;;;;16.93;4.87;;;;;;;7.78;100.00;101878.47;5278206;28;20115;-68
2023/12/26 18:42:44;;;;;;;12.33;4.17;;;;;;;7.95;100.00;101883.16;5277347;28;20036;-69
2023/12/26 18:45:17;;;;;;;13.30;4.73;;;;;;;7.79;100.00;101889.72;5276528;28;20024;-71
2023/12/26 18:47:48;;;;;;;9.70;3.60;;;;;;;7.77;100.00;101888.94;5263023;28;20464;-70
2023/12/26 18:50:20;;;;;;;14.27;5.87;;;;;;;7.76;100.00;101893.31;5276881;28;20032;-69
2023/12/26 18:52:51;;;;;;;22.53;5.23;;;;;;;7.69;100.00;101892.66;5276360;28;20123;-70
2023/12/26 18:55:22;;;;;;;14.17;4.80;;;;;;;7.67;100.00;101899.66;5276978;28;20058;-70
2023/12/26 18:57:54;;;;;;;15.07;4.90;;;;;;;7.62;100.00;101901.56;5277047;28;20067;-71
2023/12/26 19:00:25;;;;;;;13.67;4.00;;;;;;;7.64;100.00;101899.75;5276874;28;20383;-69
2023/12/26 19:02:57;;;;;;;16.10;4.03;;;;;;;7.60;100.00;101905.94;5277522;28;20461;-69
2023/12/26 19:05:28;;;;;;;9.67;4.10;;;;;;;7.68;100.00;101917.00;5276778;28;20075;-67
2023/12/26 19:08:00;;;;;;;12.77;4.60;;;;;;;7.54;100.00;101909.59;5258401;28;20032;-68
2023/12/26 19:10:31;;;;;;;9.77;3.63;;;;;;;7.44;100.00;101919.44;5277235;28;20533;-68
2023/12/26 19:13:04;;;;;;;14.90;5.40;;;;;;;7.22;100.00;101911.41;5251530;28;20044;-69
2023/12/26 19:15:35;;;;;;;11.30;4.30;;;;;;;7.30;100.00;101905.94;5274250;28;20027;-72
2023/12/26 19:18:07;;;;;;;17.23;5.10;;;;;;;7.42;100.00;101925.63;5255581;28;20025;-71
2023/12/26 19:20:38;;;;;;;13.87;6.03;;;;;;;7.30;100.00;101927.66;5277626;28;20038;-70
2023/12/26 19:23:13;;;;;;;17.93;5.17;;;;;;;7.09;100.00;101929.97;5275062;28;20075;-72
2023/12/26 19:25:45;;;;;;;8.23;3.87;;;;;;;7.00;100.00;101925.88;5280462;28;20455;-70
2023/12/26 19:28:17;;;;;;;11.67;4.33;;;;;;;7.06;100.00;101926.59;5256420;28;20066;-70
2023/12/26 19:30:50;;;;;;;15.63;5.30;;;;;;;7.07;100.00;101943.94;5275102;28;20031;-72
2023/12/26 19:33:21;;;;;;;15.43;4.77;;;;;;;7.10;100.00;101938.66;5258214;28;20529;-73
2023/12/26 19:35:53;;;;;;;15.33;4.83;;;;;;;6.83;100.00;101949.75;5200723;28;20147;-72
2023/12/26 19:38:24;;;;;;;10.00;4.17;;;;;;;6.84;100.00;101955.84;5253998;28;20505;-71
2023/12/26 19:40:58;;;;;;;12.10;4.97;;;;;;;6.83;100.00;101959.31;5264454;28;20135;-71
2023/12/26 19:43:29;;;;;;;14.40;4.95;;;;;;;6.78;100.00;101960.31;5249602;28;20067;-71
2023/12/26 19:46:01;;;;;;;13.03;4.30;;;;;;;6.70;100.00;101966.59;5268179;28;20363;-71
2023/12/26 19:48:32;;;;;;;13.63;3.97;;;;;;;6.60;100.00;101976.38;5268185;28;20028;-72
2023/12/26 19:51:04;;;;;;;20.90;6.10;;;;;;;6.63;100.00;101965.91;5267499;28;20033;-71
2023/12/26 19:53:37;;;;;;;12.63;4.60;;;;;;;6.60;100.00;101976.38;5267261;28;20032;-72
2023/12/26 19:56:08;;;;;;;16.03;4.60;;;;;;;6.65;100.00;101969.28;5250002;28;20136;-71
2023/12/26 19:58:39;;;;;;;13.50;3.90;;;;;;;6.58;100.00;101975.56;5250525;28;20022;-70
2023/12/26 20:01:10;;;;;;;16.93;3.90;;;;;;;6.47;100.00;101958.47;5270041;28;20582;-70
2023/12/26 20:03:42;;;;;;;13.67;4.37;;;;;;;6.43;100.00;101966.38;5267174;28;20030;-72
2023/12/26 20:06:14;;;;;;;13.43;4.70;;;;;;;6.31;100.00;101977.94;5268488;28;20033;-70
2023/12/26 20:08:45;;;;;;;11.07;3.80;;;;;;;6.54;100.00;101973.03;5268233;28;20032;-70
2023/12/26 20:11:19;;;;;;;13.53;5.07;;;;;;;6.54;100.00;101973.03;5268928;28;20127;-70
2023/12/26 20:13:51;;;;;;;10.77;4.45;;;;;;;6.39;100.00;101976.00;5268740;28;20477;-71
2023/12/26 20:16:22;;;;;;;11.20;5.07;;;;;;;6.43;100.00;101967.25;5267783;28;20032;-70
2023/12/26 20:18:53;;;;;;;16.80;6.43;;;;;;;6.50;100.00;101963.59;5251985;28;20117;-70
2023/12/26 20:21:25;;;;;;;18.50;6.10;;;;;;;6.41;100.00;101961.22;5268136;28;20119;-70
2023/12/26 20:23:56;;;;;;;12.43;5.00;;;;;;;6.29;100.00;101984.03;5267385;28;20129;-74
2023/12/26 20:26:27;;;;;;;13.50;5.37;;;;;;;6.38;100.00;101979.50;5263383;28;20033;-72
2023/12/26 20:28:59;;;;;;;15.37;5.07;;;;;;;6.28;100.00;101976.28;5246022;28;20025;-72
2023/12/26 20:31:32;;;;;;;13.80;3.90;;;;;;;6.28;100.00;101976.28;5267250;28;20039;-71
2023/12/26 20:34:03;;;;;;;14.70;4.40;;;;;;;6.26;100.00;101978.91;5248638;28;20511;-72
2023/12/26 20:36:35;;;;;;;15.80;5.07;;;;;;;6.03;100.00;101969.00;5261364;28;20040;-74
2023/12/26 20:39:07;;;;;;;17.63;5.53;;;;;;;6.18;100.00;101975.63;5267547;28;20028;-71
2023/12/26 20:41:42;;;;;;;15.63;4.37;;;;;;;6.33;100.00;101977.03;5263864;28;20086;-72
2023/12/26 20:44:14;;;;;;;11.03;4.47;;;;;;;6.31;100.00;101980.53;5265382;28;20040;-71
2023/12/26 20:46:46;;;;;;;15.10;5.20;;;;;;;6.08;100.00;101982.78;5265007;28;20125;-70
2023/12/26 20:49:18;;;;;;;10.80;4.17;;;;;;;5.83;100.00;101979.84;5264495;28;20039;-70
2023/12/26 20:51:49;;;;;;;10.37;4.00;;;;;;;6.20;100.00;101980.78;5261723;28;20036;-70
2023/12/26 20:54:20;;;;;;;22.73;5.53;;;;;;;6.10;100.00;101972.34;5261664;28;20144;-72
2023/12/26 20:56:57;;;;;;;15.37;5.03;;;;;;;6.17;100.00;101976.50;5264580;28;20119;-70
2023/12/26 20:59:29;;;;;;;16.00;4.60;;;;;;;5.93;100.00;101984.78;5266601;28;20032;-69
2023/12/26 21:02:00;;;;;;;16.43;4.70;;;;;;;6.22;100.00;101989.41;5247093;28;20024;-70
2023/12/26 21:04:31;;;;;;;10.60;4.43;;;;;;;6.22;100.00;101985.06;5266178;28;20055;-70
2023/12/26 21:07:04;;;;;;;15.77;5.03;;;;;;;6.16;100.00;101990.44;5263872;28;20024;-70
2023/12/26 21:09:35;;;;;;;13.23;6.07;;;;;;;5.99;100.00;101986.41;5265157;28;20670;-71
2023/12/26 21:12:07;;;;;;;13.23;4.57;;;;;;;5.84;100.00;102003.22;5246095;28;20024;-69
2023/12/26 21:14:40;;;;;;;15.60;4.93;;;;;;;5.80;100.00;101985.94;5266339;28;20055;-70
2023/12/26 21:17:12;;;;;;;13.80;4.50;;;;;;;5.85;100.00;101985.88;5263267;28;20074;-71
2023/12/26 21:19:45;;;;;;;16.00;4.67;;;;;;;5.74;100.00;101989.53;5267239;28;20024;-73
2023/12/26 21:22:16;;;;;;;19.33;6.67;;;;;;;5.71;100.00;101987.00;5262305;28;20040;-73
2023/12/26 21:24:47;;;;;;;11.60;4.37;;;;;;;5.70;100.00;101990.50;5266558;28;20025;-71
2023/12/26 21:27:19;;;;;;;11.63;4.40;;;;;;;5.64;100.00;101988.88;5267399;28;20147;-71
2023/12/26 21:29:51;;;;;;;13.03;5.40;;;;;;;5.65;100.00;101994.94;5247330;28;20124;-71
2023/12/26 21:32:22;;;;;;;18.50;6.17;;;;;;;5.66;100.00;101997.50;5266219;28;20049;-70
2023/12/26 21:34:53;;;;;;;14.60;5.70;;;;;;;5.61;100.00;101988.94;5264526;28;20043;-70
2023/12/26 21:37:25;;;;;;;15.97;5.37;;;;;;;5.58;100.00;101986.41;5247075;28;20059;-72
2023/12/26 21:39:57;;;;;;;15.67;4.80;;;;;;;5.56;100.00;101981.25;5265409;28;20056;-72
2023/12/26 21:42:28;;;;;;;23.70;10.23;;;;;;;5.58;100.00;101991.59;5267877;28;20115;-71
2023/12/26 21:45:00;;;;;;;16.00;6.70;;;;;;;5.88;100.00;101991.84;5247180;28;20035;-72
2023/12/26 21:47:32;;;;;;;13.87;6.30;;;;;;;5.58;100.00;101986.41;5265686;28;20048;-72
2023/12/26 21:50:03;;;;;;;19.23;7.40;;;;;;;5.74;100.00;101994.72;5263557;28;20650;-73
2023/12/26 21:52:34;;;;;;;16.13;7.13;;;;;;;5.51;100.00;101993.47;5245858;28;20040;-72
2023/12/26 21:55:06;;;;;;;17.77;9.83;;;;;;;5.29;100.00;101998.19;5262265;28;20128;-72
2023/12/26 21:57:37;;;;;;;24.03;9.03;;;;;;;5.19;100.00;101988.00;5248125;28;20681;-69
2023/12/26 22:00:11;;;;;;;12.87;5.90;;;;;;;5.43;100.00;101996.22;5263742;28;20422;-69
2023/12/26 22:02:42;;;;;;;25.63;11.70;;;;;;;5.35;100.00;101997.25;5245650;28;20032;-69
2023/12/26 22:05:16;;;;;;;44.43;20.90;;;;;;;5.42;100.00;101999.72;5264637;28;20036;-68
2023/12/26 22:07:47;;;;;;;26.95;14.43;;;;;;;5.77;100.00;102004.22;5267183;28;20386;-68
2023/12/26 22:10:18;;;;;;;23.43;9.90;;;;;;;5.64;100.00;102014.84;5263820;28;20150;-71
2023/12/26 22:12:50;;;;;;;28.17;13.07;;;;;;;5.57;100.00;102014.13;5266648;28;20487;-71
2023/12/26 22:15:21;;;;;;;26.57;11.03;;;;;;;5.40;100.00;102013.59;5248321;28;20036;-71
2023/12/26 22:17:52;;;;;;;16.80;9.43;;;;;;;5.30;100.00;102011.19;5266277;28;20033;-71
2023/12/26 22:20:24;;;;;;;16.97;7.17;;;;;;;5.24;100.00;102000.91;5260440;28;20067;-69
